createdAt,value
2022-10-16T00:02:01.643Z,100.00
2022-10-16T00:04:50.093Z,100.00
2022-10-16T00:07:38.501Z,100.00
2022-10-16T00:10:26.903Z,100.00
2022-10-16T00:13:15.302Z,100.00
2022-10-16T00:16:05.894Z,100.00
2022-10-16T00:18:54.335Z,100.00
2022-10-16T00:21:43.155Z,100.00
2022-10-16T00:24:31.587Z,100.00
2022-10-16T00:27:20.072Z,100.00
2022-10-16T00:30:10.195Z,100.00
2022-10-16T00:33:00.090Z,100.00
2022-10-16T00:35:48.766Z,100.00
2022-10-16T00:38:38.665Z,100.00
2022-10-16T00:41:27.435Z,100.00
2022-10-16T00:44:44.739Z,100.00
2022-10-16T00:47:36.143Z,100.00
2022-10-16T00:50:29.377Z,100.00
2022-10-16T00:53:18.715Z,100.00
2022-10-16T00:56:07.858Z,100.00
2022-10-16T00:58:56.366Z,100.00
2022-10-16T01:01:44.855Z,100.00
2022-10-16T01:04:39.147Z,100.00
2022-10-16T01:07:37.061Z,100.00
2022-10-16T01:10:30.017Z,100.00
2022-10-16T01:13:22.575Z,100.00
2022-10-16T01:16:15.927Z,100.00
2022-10-16T01:19:10.559Z,100.00
2022-10-16T01:21:59.907Z,100.00
2022-10-16T01:24:51.294Z,100.00
2022-10-16T01:27:42.455Z,100.00
2022-10-16T01:30:33.059Z,100.00
2022-10-16T01:33:23.601Z,100.00
2022-10-16T01:36:15.587Z,100.00
2022-10-16T01:39:04.593Z,100.00
2022-10-16T01:41:57.172Z,100.00
2022-10-16T01:44:47.752Z,100.00
2022-10-16T01:47:37.631Z,100.00
2022-10-16T01:50:26.557Z,100.00
2022-10-16T01:53:15.905Z,100.00
2022-10-16T01:56:06.196Z,100.00
2022-10-16T01:58:56.888Z,100.00
2022-10-16T02:01:49.007Z,100.00
2022-10-16T02:04:40.380Z,100.00
2022-10-16T02:07:28.926Z,100.00
2022-10-16T02:10:17.859Z,100.00
2022-10-16T02:13:09.786Z,100.00
2022-10-16T02:15:58.206Z,100.00
2022-10-16T02:18:47.994Z,100.00
2022-10-16T02:21:42.208Z,100.00
2022-10-16T02:24:35.269Z,100.00
2022-10-16T02:27:28.123Z,100.00
2022-10-16T02:30:20.098Z,100.00
2022-10-16T02:33:11.450Z,100.00
2022-10-16T02:36:01.383Z,100.00
2022-10-16T02:38:49.829Z,100.00
2022-10-16T02:41:38.698Z,100.00
2022-10-16T02:44:27.277Z,100.00
2022-10-16T02:47:15.763Z,100.00
2022-10-16T02:50:04.749Z,100.00
2022-10-16T02:52:54.545Z,100.00
2022-10-16T02:55:42.974Z,100.00
2022-10-16T02:58:31.448Z,100.00
2022-10-16T03:01:19.964Z,100.00
2022-10-16T03:04:08.464Z,100.00
2022-10-16T03:06:56.959Z,100.00
2022-10-16T03:09:46.693Z,100.00
2022-10-16T03:12:35.189Z,100.00
2022-10-16T03:15:23.643Z,100.00
2022-10-16T03:18:12.056Z,100.00
2022-10-16T03:21:00.483Z,100.00
2022-10-16T03:23:48.911Z,100.00
2022-10-16T03:26:38.720Z,100.00
2022-10-16T03:29:28.549Z,100.00
2022-10-16T03:32:16.957Z,100.00
2022-10-16T03:35:05.985Z,100.00
2022-10-16T03:37:54.408Z,100.00
2022-10-16T03:40:42.805Z,100.00
2022-10-16T03:43:32.568Z,100.00
2022-10-16T03:46:21.007Z,100.00
2022-10-16T03:49:10.016Z,100.00
2022-10-16T03:51:58.541Z,100.00
2022-10-16T03:54:46.940Z,100.00
2022-10-16T03:57:35.353Z,100.00
2022-10-16T04:00:25.116Z,100.00
2022-10-16T04:03:13.830Z,100.00
2022-10-16T04:06:02.287Z,100.00
2022-10-16T04:08:50.922Z,100.00
2022-10-16T04:11:39.915Z,100.00
2022-10-16T04:14:28.385Z,100.00
2022-10-16T04:17:18.161Z,100.00
2022-10-16T04:20:07.818Z,100.00
2022-10-16T04:22:56.260Z,100.00
2022-10-16T04:25:44.671Z,100.00
2022-10-16T04:28:33.114Z,100.00
2022-10-16T04:31:21.620Z,100.00
2022-10-16T04:34:11.362Z,100.00
2022-10-16T04:36:59.771Z,100.00
2022-10-16T04:39:48.160Z,100.00
2022-10-16T04:42:36.581Z,100.00
2022-10-16T04:45:25.070Z,100.00
2022-10-16T04:48:13.538Z,100.00
2022-10-16T04:51:03.363Z,100.00
2022-10-16T04:53:51.765Z,100.00
2022-10-16T04:56:47.473Z,100.00
2022-10-16T04:59:36.006Z,100.00
2022-10-16T05:02:24.626Z,100.00
2022-10-16T05:05:13.299Z,100.00
2022-10-16T05:08:03.236Z,100.00
2022-10-16T05:10:51.699Z,100.00
2022-10-16T05:13:40.114Z,100.00
2022-10-16T05:16:28.780Z,100.00
2022-10-16T05:19:32.404Z,100.00
2022-10-16T05:22:20.857Z,100.00
2022-10-16T05:25:10.672Z,100.00
2022-10-16T05:27:59.112Z,100.00
2022-10-16T05:30:47.551Z,100.00
2022-10-16T05:33:36.185Z,100.00
2022-10-16T05:36:24.642Z,100.00
2022-10-16T05:39:13.148Z,100.00
2022-10-16T05:42:02.896Z,100.00
2022-10-16T05:44:51.312Z,100.00
2022-10-16T05:47:39.944Z,100.00
2022-10-16T05:50:28.409Z,100.00
2022-10-16T05:53:16.788Z,100.00
2022-10-16T05:56:06.297Z,100.00
2022-10-16T05:58:56.291Z,100.00
2022-10-16T06:01:44.706Z,100.00
2022-10-16T06:04:33.109Z,100.00
2022-10-16T06:07:21.571Z,100.00
2022-10-16T06:10:10.631Z,100.00
2022-10-16T06:12:59.056Z,100.00
2022-10-16T06:15:48.812Z,100.00
2022-10-16T06:18:37.374Z,100.00
2022-10-16T06:21:27.232Z,100.00
2022-10-16T06:24:15.669Z,100.00
2022-10-16T06:27:05.256Z,100.00
2022-10-16T06:29:53.779Z,100.00
2022-10-16T06:32:43.590Z,100.00
2022-10-16T06:35:32.891Z,100.00
2022-10-16T06:38:21.282Z,100.00
2022-10-16T06:41:12.085Z,100.00
2022-10-16T06:44:00.483Z,100.00
2022-10-16T06:46:48.905Z,100.00
2022-10-16T06:49:38.805Z,100.00
2022-10-16T06:52:29.746Z,100.00
2022-10-16T06:55:18.325Z,100.00
2022-10-16T06:58:06.724Z,100.00
2022-10-16T07:00:57.777Z,100.00
2022-10-16T07:03:47.354Z,100.00
2022-10-16T07:06:37.142Z,100.00
2022-10-16T07:09:25.852Z,100.00
2022-10-16T07:12:14.328Z,100.00
2022-10-16T07:15:02.855Z,100.00
2022-10-16T07:17:51.305Z,100.00
2022-10-16T07:20:39.718Z,100.00
2022-10-16T07:23:29.534Z,100.00
2022-10-16T07:26:18.244Z,100.00
2022-10-16T07:29:06.899Z,100.00
2022-10-16T07:31:55.355Z,100.00
2022-10-16T07:34:44.292Z,100.00
2022-10-16T07:37:32.703Z,100.00
2022-10-16T07:40:23.147Z,100.00
2022-10-16T07:43:11.703Z,100.00
2022-10-16T07:46:02.599Z,100.00
2022-10-16T07:48:54.307Z,100.00
2022-10-16T07:51:42.799Z,100.00
2022-10-16T07:54:31.312Z,100.00
2022-10-16T07:57:21.114Z,100.00
2022-10-16T08:00:14.428Z,100.00
2022-10-16T08:03:02.960Z,100.00
2022-10-16T08:05:51.547Z,100.00
2022-10-16T08:08:40.069Z,100.00
2022-10-16T08:11:28.482Z,100.00
2022-10-16T08:14:18.283Z,100.00
2022-10-16T08:17:06.727Z,100.00
2022-10-16T08:19:55.170Z,100.00
2022-10-16T08:22:43.572Z,100.00
2022-10-16T08:25:32.027Z,100.00
2022-10-16T08:28:20.534Z,100.00
2022-10-16T08:31:11.866Z,100.00
2022-10-16T08:34:00.319Z,100.00
2022-10-16T08:36:48.769Z,100.00
2022-10-16T08:39:37.199Z,100.00
2022-10-16T08:42:40.003Z,100.00
2022-10-16T08:45:36.477Z,100.00
2022-10-16T08:48:31.350Z,100.00
2022-10-16T08:51:23.528Z,100.00
2022-10-16T08:54:23.276Z,100.00
2022-10-16T08:57:16.320Z,100.00
2022-10-16T09:00:15.518Z,100.00
2022-10-16T09:03:09.320Z,100.00
2022-10-16T09:06:08.820Z,100.00
2022-10-16T09:09:10.708Z,100.00
2022-10-16T09:12:02.964Z,100.00
2022-10-16T09:15:01.547Z,100.00
2022-10-16T09:17:56.563Z,100.00
2022-10-16T09:20:52.239Z,100.00
2022-10-16T09:23:42.379Z,100.00
2022-10-16T09:26:30.896Z,100.00
2022-10-16T09:29:21.593Z,100.00
2022-10-16T09:32:13.941Z,100.00
2022-10-16T09:35:02.759Z,100.00
2022-10-16T09:37:52.891Z,100.00
2022-10-16T09:40:44.742Z,100.00
2022-10-16T09:43:37.350Z,100.00
2022-10-16T09:46:29.212Z,100.00
2022-10-16T09:49:23.872Z,100.00
2022-10-16T09:52:14.942Z,100.00
2022-10-16T09:55:11.408Z,100.00
2022-10-16T09:58:01.273Z,100.00
2022-10-16T10:00:54.380Z,100.00
2022-10-16T10:03:44.479Z,100.00
2022-10-16T10:06:34.752Z,100.00
2022-10-16T10:09:25.057Z,100.00
2022-10-16T10:12:22.985Z,100.00
2022-10-16T10:15:20.836Z,100.00
2022-10-16T10:18:18.848Z,100.00
2022-10-16T10:21:07.831Z,100.00
2022-10-16T10:23:59.207Z,100.00
2022-10-16T10:26:53.324Z,100.00
2022-10-16T10:29:49.273Z,100.00
2022-10-16T10:32:45.152Z,100.00
2022-10-16T10:35:37.624Z,100.00
2022-10-16T10:38:33.357Z,100.00
2022-10-16T10:41:47.214Z,100.00
2022-10-16T10:45:06.190Z,96.63
2022-10-16T10:48:06.134Z,94.69
2022-10-16T10:50:58.020Z,92.76
2022-10-16T10:53:51.392Z,91.30
2022-10-16T10:56:46.047Z,90.60
2022-10-16T10:59:59.021Z,91.06
2022-10-16T11:02:50.976Z,92.77
2022-10-16T11:05:43.583Z,94.95
2022-10-16T11:08:36.303Z,93.83
2022-10-16T11:11:27.941Z,94.76
2022-10-16T11:14:19.505Z,95.69
2022-10-16T11:17:12.461Z,95.46
2022-10-16T11:20:04.872Z,92.10
2022-10-16T11:22:57.423Z,92.87
2022-10-16T11:25:47.387Z,90.27
2022-10-16T11:28:39.638Z,89.08
2022-10-16T11:31:33.008Z,91.24
2022-10-16T11:34:24.891Z,90.75
2022-10-16T11:37:16.362Z,89.17
2022-10-16T11:40:19.481Z,85.88
2022-10-16T11:43:13.296Z,85.46
2022-10-16T11:46:09.232Z,85.38
2022-10-16T11:49:04.874Z,85.28
2022-10-16T11:52:00.971Z,85.85
2022-10-16T11:54:52.493Z,86.93
2022-10-16T11:57:46.309Z,88.69
2022-10-16T12:00:40.312Z,82.07
2022-10-16T12:03:31.787Z,84.11
2022-10-16T12:06:30.412Z,83.92
2022-10-16T12:09:23.575Z,84.94
2022-10-16T12:12:28.260Z,83.46
2022-10-16T12:15:47.051Z,81.83
2022-10-16T12:18:34.830Z,83.22
2022-10-16T12:24:29.956Z,82.40
2022-10-16T12:27:26.929Z,84.85
2022-10-16T12:30:24.496Z,84.11
2022-10-16T12:33:23.329Z,85.65
2022-10-16T12:36:15.987Z,84.44
2022-10-16T12:39:05.032Z,83.95
2022-10-16T12:42:03.113Z,83.78
2022-10-16T12:44:52.105Z,83.03
2022-10-16T12:47:51.146Z,84.09
2022-10-16T12:50:41.689Z,83.32
2022-10-16T12:53:30.604Z,83.96
2022-10-16T12:56:24.313Z,79.95
2022-10-16T12:59:21.437Z,81.44
2022-10-16T13:02:44.917Z,82.74
2022-10-16T13:05:41.296Z,80.15
2022-10-16T13:08:48.174Z,81.72
2022-10-16T13:11:47.924Z,82.91
2022-10-16T13:14:56.146Z,84.28
2022-10-16T13:17:52.094Z,82.89
2022-10-16T13:20:57.544Z,82.98
2022-10-16T13:23:52.197Z,81.86
2022-10-16T13:26:45.527Z,83.31
2022-10-16T13:29:34.685Z,84.44
2022-10-16T13:32:23.674Z,85.46
2022-10-16T13:35:24.804Z,86.54
2022-10-16T13:38:17.911Z,87.74
2022-10-16T13:41:08.351Z,85.24
2022-10-16T13:43:58.689Z,85.42
2022-10-16T13:46:47.182Z,87.05
2022-10-16T13:49:35.751Z,85.59
2022-10-16T13:52:25.764Z,88.19
2022-10-16T13:55:15.465Z,85.02
2022-10-16T13:58:07.659Z,84.18
2022-10-16T14:00:58.518Z,87.50
2022-10-16T14:03:47.745Z,89.53
2022-10-16T14:06:37.366Z,93.40
2022-10-16T14:09:28.627Z,95.54
2022-10-16T14:12:17.453Z,96.27
2022-10-16T14:15:07.280Z,96.98
2022-10-16T14:17:55.961Z,97.37
2022-10-16T14:20:44.602Z,98.72
2022-10-16T14:23:34.492Z,98.42
2022-10-16T14:26:25.515Z,100.00
2022-10-16T14:29:17.169Z,99.60
2022-10-16T14:32:07.085Z,99.67
2022-10-16T14:34:56.302Z,96.97
2022-10-16T14:37:45.960Z,97.46
2022-10-16T14:40:35.859Z,97.50
2022-10-16T14:43:31.145Z,96.00
2022-10-16T14:46:22.911Z,93.90
2022-10-16T14:49:17.560Z,94.95
2022-10-16T14:52:10.992Z,95.33
2022-10-16T14:54:59.406Z,95.83
2022-10-16T14:57:48.119Z,95.32
2022-10-16T15:00:37.923Z,95.77
2022-10-16T15:03:26.460Z,96.75
2022-10-16T15:06:15.918Z,96.93
2022-10-16T15:09:04.653Z,96.87
2022-10-16T15:11:53.165Z,98.50
2022-10-16T15:14:41.740Z,99.08
2022-10-16T15:17:31.516Z,98.37
2022-10-16T15:20:19.999Z,99.05
2022-10-16T15:23:15.140Z,100.00
2022-10-16T15:26:03.689Z,100.00
2022-10-16T15:28:52.277Z,100.00
2022-10-16T15:31:43.422Z,100.00
2022-10-16T15:34:33.208Z,100.00
2022-10-16T15:37:21.771Z,100.00
2022-10-16T15:40:11.860Z,100.00
2022-10-16T15:43:00.325Z,100.00
2022-10-16T15:46:00.534Z,100.00
2022-10-16T15:48:49.774Z,100.00
2022-10-16T15:51:42.364Z,100.00
2022-10-16T15:54:30.839Z,100.00
2022-10-16T15:57:19.515Z,100.00
2022-10-16T16:00:10.700Z,100.00
2022-10-16T16:02:59.501Z,100.00
2022-10-16T16:05:48.069Z,100.00
2022-10-16T16:08:38.283Z,100.00
2022-10-16T16:11:26.868Z,100.00
2022-10-16T16:14:15.935Z,100.00
2022-10-16T16:17:04.395Z,100.00
2022-10-16T16:19:52.878Z,100.00
2022-10-16T16:22:41.693Z,100.00
2022-10-16T16:25:31.617Z,100.00
2022-10-16T16:28:20.114Z,100.00
2022-10-16T16:31:09.031Z,100.00
2022-10-16T16:33:58.474Z,100.00
2022-10-16T16:36:46.909Z,100.00
2022-10-16T16:39:35.509Z,100.00
2022-10-16T16:42:25.362Z,100.00
2022-10-16T16:45:13.946Z,100.00
2022-10-16T16:48:02.505Z,100.00
2022-10-16T16:50:50.937Z,100.00
2022-10-16T16:53:39.435Z,100.00
2022-10-16T16:56:28.367Z,100.00
2022-10-16T16:59:20.623Z,100.00
2022-10-16T17:02:11.097Z,100.00
2022-10-16T17:04:59.648Z,100.00
2022-10-16T17:07:48.641Z,100.00
2022-10-16T17:10:44.660Z,100.00
2022-10-16T17:13:37.880Z,100.00
2022-10-16T17:16:29.808Z,100.00
2022-10-16T17:19:19.737Z,100.00
2022-10-16T17:22:08.217Z,100.00
2022-10-16T17:24:56.972Z,100.00
2022-10-16T17:27:45.586Z,100.00
2022-10-16T17:30:35.629Z,100.00
2022-10-16T17:33:25.484Z,100.00
2022-10-16T17:36:15.051Z,100.00
2022-10-16T17:39:06.320Z,100.00
2022-10-16T17:41:55.685Z,100.00
2022-10-16T17:44:44.243Z,100.00
2022-10-16T17:47:32.736Z,100.00
2022-10-16T17:50:22.810Z,100.00
2022-10-16T17:53:11.415Z,100.00
2022-10-16T17:56:04.614Z,100.00
2022-10-16T17:58:55.307Z,100.00
2022-10-16T18:01:46.193Z,100.00
2022-10-16T18:04:34.948Z,100.00
2022-10-16T18:07:25.169Z,100.00
2022-10-16T18:10:15.522Z,100.00
2022-10-16T18:13:07.163Z,100.00
2022-10-16T18:16:01.583Z,100.00
2022-10-16T18:18:50.322Z,100.00
2022-10-16T18:21:39.157Z,100.00
2022-10-16T18:24:29.310Z,100.00
2022-10-16T18:27:17.895Z,100.00
2022-10-16T18:30:07.668Z,100.00
2022-10-16T18:32:56.161Z,100.00
2022-10-16T18:35:44.753Z,100.00
2022-10-16T18:38:33.669Z,100.00
2022-10-16T18:41:23.815Z,100.00
2022-10-16T18:44:13.281Z,100.00
2022-10-16T18:47:02.468Z,100.00
2022-10-16T18:49:51.498Z,100.00
2022-10-16T18:52:40.122Z,100.00
2022-10-16T18:55:30.946Z,100.00
2022-10-16T18:58:21.178Z,100.00
2022-10-16T19:01:11.208Z,100.00
2022-10-16T19:04:06.806Z,100.00
2022-10-16T19:06:55.933Z,100.00
2022-10-16T19:09:44.511Z,100.00
2022-10-16T19:12:33.039Z,100.00
2022-10-16T19:15:23.255Z,100.00
2022-10-16T19:18:11.772Z,100.00
2022-10-16T19:21:03.227Z,100.00
2022-10-16T19:23:53.011Z,100.00
2022-10-16T19:26:42.195Z,100.00
2022-10-16T19:29:31.018Z,100.00
2022-10-16T19:32:20.974Z,100.00
2022-10-16T19:35:10.292Z,100.00
2022-10-16T19:37:58.734Z,100.00
2022-10-16T19:40:47.276Z,100.00
2022-10-16T19:43:36.046Z,100.00
2022-10-16T19:46:26.287Z,100.00
2022-10-16T19:49:21.116Z,100.00
2022-10-16T19:52:09.577Z,100.00
2022-10-16T19:54:58.319Z,100.00
2022-10-16T19:57:47.003Z,100.00
2022-10-16T20:00:35.543Z,100.00
2022-10-16T20:03:24.014Z,100.00
2022-10-16T20:06:14.570Z,100.00
2022-10-16T20:09:03.108Z,100.00
2022-10-16T20:11:51.556Z,100.00
2022-10-16T20:14:40.004Z,100.00
2022-10-16T20:17:29.024Z,100.00
2022-10-16T20:20:18.152Z,100.00
2022-10-16T20:23:08.092Z,100.00
2022-10-16T20:25:58.199Z,100.00
2022-10-16T20:28:49.232Z,100.00
2022-10-16T20:31:38.310Z,100.00
2022-10-16T20:34:26.804Z,100.00
2022-10-16T20:37:15.301Z,100.00
2022-10-16T20:40:05.993Z,100.00
2022-10-16T20:42:54.434Z,100.00
2022-10-16T20:45:42.947Z,100.00
2022-10-16T20:48:31.494Z,100.00
2022-10-16T20:51:22.061Z,100.00
2022-10-16T20:54:12.501Z,100.00
2022-10-16T20:57:02.284Z,100.00
2022-10-16T20:59:54.912Z,100.00
2022-10-16T21:02:43.353Z,100.00
2022-10-16T21:05:34.441Z,100.00
2022-10-16T21:08:22.919Z,100.00
2022-10-16T21:11:12.883Z,100.00
2022-10-16T21:14:04.305Z,100.00
2022-10-16T21:16:52.729Z,100.00
2022-10-16T21:19:41.178Z,100.00
2022-10-16T21:22:30.571Z,100.00
2022-10-16T21:25:19.467Z,100.00
2022-10-16T21:28:07.902Z,100.00
2022-10-16T21:30:57.760Z,100.00
2022-10-16T21:33:46.457Z,100.00
2022-10-16T21:36:36.433Z,100.00
2022-10-16T21:39:24.860Z,100.00
2022-10-16T21:42:13.310Z,100.00
2022-10-16T21:45:01.743Z,100.00
2022-10-16T21:47:51.570Z,100.00
2022-10-16T21:50:40.006Z,100.00
2022-10-16T21:53:28.505Z,100.00
2022-10-16T21:56:18.451Z,100.00
2022-10-16T21:59:07.413Z,100.00
2022-10-16T22:01:56.579Z,100.00
2022-10-16T22:04:46.401Z,100.00
2022-10-16T22:07:34.861Z,100.00
2022-10-16T22:10:23.292Z,100.00
2022-10-16T22:13:11.705Z,100.00
2022-10-16T22:16:00.461Z,100.00
2022-10-16T22:18:49.273Z,100.00
2022-10-16T22:21:40.742Z,100.00
2022-10-16T22:24:29.188Z,100.00
2022-10-16T22:27:17.669Z,100.00
2022-10-16T22:30:07.089Z,100.00
2022-10-16T22:32:55.543Z,100.00
2022-10-16T22:35:44.014Z,100.00
2022-10-16T22:38:34.938Z,100.00
2022-10-16T22:41:24.576Z,100.00
2022-10-16T22:44:13.594Z,100.00
2022-10-16T22:47:02.026Z,100.00
2022-10-16T22:49:50.468Z,100.00
2022-10-16T22:52:39.235Z,100.00
2022-10-16T22:55:29.088Z,100.00
2022-10-16T22:58:17.531Z,100.00
2022-10-16T23:01:12.381Z,100.00
2022-10-16T23:04:02.096Z,100.00
2022-10-16T23:06:50.604Z,100.00
2022-10-16T23:09:39.370Z,100.00
2022-10-16T23:12:29.860Z,100.00
2022-10-16T23:15:18.702Z,100.00
2022-10-16T23:18:07.148Z,100.00
2022-10-16T23:20:55.595Z,100.00
2022-10-16T23:23:44.693Z,100.00
2022-10-16T23:26:35.170Z,100.00
2022-10-16T23:29:24.948Z,100.00
2022-10-16T23:32:13.649Z,100.00
2022-10-16T23:35:02.134Z,100.00
2022-10-16T23:37:51.444Z,100.00
2022-10-16T23:40:39.855Z,100.00
2022-10-16T23:43:28.706Z,100.00
2022-10-16T23:46:18.562Z,100.00
2022-10-16T23:49:07.079Z,100.00
2022-10-16T23:51:55.728Z,100.00
2022-10-16T23:54:44.154Z,100.00
2022-10-16T23:57:32.563Z,100.00
